Time;durP1;ratioP1;P1;durP2;ratioP2;P2;SDS_P1;SDS_P2;PMS_P1;PMS_P2;Temp;Humidity;BMP_temperature;BMP_pressure;BME280_temperature;BME280_humidity;BME280_pressure;Samples;Min_cycle;Max_cycle;Signal;HPM_P1;HPM_P2
2023/09/16 00:00:33;;;;;;;11.17;7.90;;;;;;;;;;774757;180;919913;-62
2023/09/16 00:02:56;;;;;;;8.70;6.50;;;;;;;;;;778792;180;918905;-66
2023/09/16 00:05:22;;;;;;;12.10;8.30;;;;;;;;;;772614;181;818474;-67
2023/09/16 00:07:48;;;;;;;12.00;8.60;;;;;;;;;;774083;181;918497;-62
2023/09/16 00:10:15;;;;;;;9.68;7.45;;;;;;;;;;779783;180;918430;-63
2023/09/16 00:12:40;;;;;;;10.53;7.80;;;;;;;;;;767000;180;913554;-66
2023/09/16 00:15:07;;;;;;;13.60;8.60;;;;;;;;;;768652;179;917027;-68
2023/09/16 00:17:32;;;;;;;12.63;9.27;;;;;;;;;;773861;179;904133;-66
2023/09/16 00:19:58;;;;;;;13.30;9.00;;;;;;;;;;778774;178;920311;-62
2023/09/16 00:22:24;;;;;;;12.10;8.77;;;;;;;;;;771180;179;920787;-66
2023/09/16 00:24:52;;;;;;;11.17;7.87;;;;;;;;;;771323;181;918292;-62
2023/09/16 00:27:16;;;;;;;18.00;8.03;;;;;;;;;;780762;180;920088;-66
2023/09/16 00:29:42;;;;;;;12.70;8.77;;;;;;;;;;776859;180;919380;-66
2023/09/16 00:32:08;;;;;;;11.57;9.90;;;;;;;;;;773649;181;922597;-67
2023/09/16 00:34:33;;;;;;;10.35;8.30;;;;;;;;;;777657;182;814692;-62
2023/09/16 00:36:59;;;;;;;12.30;8.77;;;;;;;;;;774724;180;918595;-63
2023/09/16 00:39:25;;;;;;;12.50;9.30;;;;;;;;;;775714;178;828968;-67
2023/09/16 00:41:51;;;;;;;18.10;9.07;;;;;;;;;;773814;181;918061;-62
2023/09/16 00:44:17;;;;;;;11.60;8.43;;;;;;;;;;777780;178;919342;-63
2023/09/16 00:46:43;;;;;;;10.70;8.30;;;;;;;;;;776341;180;918534;-63
2023/09/16 00:49:08;;;;;;;10.88;8.88;;;;;;;;;;772278;178;919616;-67
2023/09/16 00:51:34;;;;;;;12.23;9.33;;;;;;;;;;775926;181;919463;-70
2023/09/16 00:54:00;;;;;;;16.10;9.80;;;;;;;;;;774385;179;919502;-67
2023/09/16 00:56:27;;;;;;;12.40;9.27;;;;;;;;;;774796;180;918678;-67
2023/09/16 00:58:52;;;;;;;13.80;9.80;;;;;;;;;;779767;180;919356;-67
2023/09/16 01:01:18;;;;;;;13.23;8.83;;;;;;;;;;771576;181;1019209;-67
2023/09/16 01:03:44;;;;;;;11.85;9.70;;;;;;;;;;772932;180;918357;-67
2023/09/16 01:06:10;;;;;;;12.90;9.83;;;;;;;;;;772985;178;860182;-67
2023/09/16 01:08:35;;;;;;;12.17;9.63;;;;;;;;;;772164;181;919425;-63
2023/09/16 01:11:05;;;;;;;12.93;9.90;;;;;;;;;;771520;181;919549;-66
2023/09/16 01:13:28;;;;;;;12.67;8.70;;;;;;;;;;774095;180;886626;-63
2023/09/16 01:15:56;;;;;;;10.13;8.70;;;;;;;;;;778453;181;919239;-63
2023/09/16 01:18:22;;;;;;;11.25;9.30;;;;;;;;;;772005;180;919356;-63
2023/09/16 01:20:48;;;;;;;16.13;10.80;;;;;;;;;;775059;181;817733;-67
2023/09/16 01:23:14;;;;;;;12.90;10.60;;;;;;;;;;782614;180;816520;-63
2023/09/16 01:25:40;;;;;;;10.57;9.43;;;;;;;;;;774310;180;918904;-66
2023/09/16 01:28:06;;;;;;;11.05;8.90;;;;;;;;;;756481;182;906364;-62
2023/09/16 01:30:31;;;;;;;12.70;9.70;;;;;;;;;;771097;181;921544;-67
2023/09/16 01:32:57;;;;;;;13.87;9.77;;;;;;;;;;770065;180;925888;-67
2023/09/16 01:35:23;;;;;;;11.13;9.37;;;;;;;;;;768088;177;914784;-61
2023/09/16 01:37:49;;;;;;;12.37;9.60;;;;;;;;;;773663;181;914886;-66
2023/09/16 01:40:15;;;;;;;11.73;9.63;;;;;;;;;;778736;181;918964;-66
2023/09/16 01:42:41;;;;;;;10.73;9.10;;;;;;;;;;774046;181;919450;-66
2023/09/16 01:45:07;;;;;;;15.13;9.68;;;;;;;;;;774994;179;916701;-62
2023/09/16 01:47:32;;;;;;;18.73;10.13;;;;;;;;;;774141;181;915682;-67
2023/09/16 01:49:58;;;;;;;13.50;8.67;;;;;;;;;;776234;177;915993;-66
2023/09/16 01:52:24;;;;;;;9.60;8.00;;;;;;;;;;773608;179;920508;-67
2023/09/16 01:54:50;;;;;;;15.77;9.47;;;;;;;;;;776488;180;918847;-67
2023/09/16 01:57:16;;;;;;;12.60;9.30;;;;;;;;;;757893;181;919310;-67
2023/09/16 01:59:42;;;;;;;20.23;9.30;;;;;;;;;;750468;186;918173;-63
2023/09/16 02:02:08;;;;;;;10.70;8.50;;;;;;;;;;747944;187;917609;-66
2023/09/16 02:04:33;;;;;;;13.30;9.57;;;;;;;;;;756532;187;921122;-61
2023/09/16 02:06:59;;;;;;;11.40;9.63;;;;;;;;;;756207;184;919562;-68
2023/09/16 02:09:25;;;;;;;12.00;9.00;;;;;;;;;;764277;178;918772;-62
2023/09/16 02:11:51;;;;;;;13.73;10.00;;;;;;;;;;778435;181;923307;-62
2023/09/16 02:14:17;;;;;;;14.17;10.20;;;;;;;;;;772453;180;920814;-62
2023/09/16 02:16:43;;;;;;;19.70;9.73;;;;;;;;;;773330;180;918989;-63
2023/09/16 02:19:08;;;;;;;15.27;10.30;;;;;;;;;;774315;181;918429;-67
2023/09/16 02:21:34;;;;;;;12.80;8.50;;;;;;;;;;770940;178;918261;-63
2023/09/16 02:24:00;;;;;;;14.03;9.77;;;;;;;;;;773248;177;919033;-68
2023/09/16 02:26:26;;;;;;;14.73;9.43;;;;;;;;;;774100;180;918850;-68
2023/09/16 02:28:52;;;;;;;14.83;10.47;;;;;;;;;;771373;180;919618;-68
2023/09/16 02:31:18;;;;;;;14.67;10.20;;;;;;;;;;769806;177;919609;-69
2023/09/16 02:33:44;;;;;;;13.80;10.15;;;;;;;;;;765873;181;917792;-68
2023/09/16 02:36:10;;;;;;;21.93;10.57;;;;;;;;;;765309;182;920241;-69
2023/09/16 02:38:36;;;;;;;15.33;10.57;;;;;;;;;;772773;180;921180;-65
2023/09/16 02:41:04;;;;;;;16.27;11.47;;;;;;;;;;759860;184;919042;-68
2023/09/16 02:43:29;;;;;;;16.63;10.00;;;;;;;;;;772041;182;919426;-69
2023/09/16 02:45:56;;;;;;;12.30;9.90;;;;;;;;;;778538;178;918334;-68
2023/09/16 02:48:21;;;;;;;15.03;10.70;;;;;;;;;;776743;181;919642;-65
2023/09/16 02:50:47;;;;;;;13.60;10.63;;;;;;;;;;772994;179;918772;-65
2023/09/16 02:53:13;;;;;;;15.37;10.60;;;;;;;;;;772418;181;930014;-68
2023/09/16 02:55:39;;;;;;;14.37;10.60;;;;;;;;;;762617;181;918251;-68
2023/09/16 02:58:05;;;;;;;13.83;10.70;;;;;;;;;;763073;180;879395;-62
2023/09/16 03:00:31;;;;;;;13.13;9.50;;;;;;;;;;779276;177;917540;-64
2023/09/16 03:02:57;;;;;;;12.77;11.30;;;;;;;;;;775727;180;920274;-68
2023/09/16 03:05:22;;;;;;;14.00;10.63;;;;;;;;;;774081;178;919407;-65
2023/09/16 03:07:49;;;;;;;14.27;10.10;;;;;;;;;;777569;181;916742;-68
2023/09/16 03:10:15;;;;;;;14.37;11.30;;;;;;;;;;771675;179;920482;-68
2023/09/16 03:12:41;;;;;;;13.52;10.65;;;;;;;;;;774748;178;920469;-65
2023/09/16 03:15:07;;;;;;;18.07;11.37;;;;;;;;;;777373;180;816526;-62
2023/09/16 03:17:33;;;;;;;14.77;11.30;;;;;;;;;;776899;180;816433;-69
2023/09/16 03:19:59;;;;;;;14.70;10.93;;;;;;;;;;775041;177;918722;-64
2023/09/16 03:22:24;;;;;;;14.80;11.90;;;;;;;;;;773776;177;859204;-64
2023/09/16 03:24:50;;;;;;;18.60;11.40;;;;;;;;;;771430;181;920058;-63
2023/09/16 03:27:16;;;;;;;17.03;11.10;;;;;;;;;;774361;178;918878;-64
2023/09/16 03:29:42;;;;;;;11.60;10.37;;;;;;;;;;772352;180;919294;-67
2023/09/16 03:32:08;;;;;;;14.93;10.53;;;;;;;;;;778734;181;815750;-67
2023/09/16 03:34:34;;;;;;;13.67;10.50;;;;;;;;;;774302;180;921838;-67
2023/09/16 03:37:00;;;;;;;10.57;9.53;;;;;;;;;;773154;180;921507;-69
2023/09/16 03:39:25;;;;;;;12.13;10.60;;;;;;;;;;777761;180;920793;-64
2023/09/16 03:41:51;;;;;;;15.90;10.10;;;;;;;;;;771634;180;919332;-68
2023/09/16 03:44:17;;;;;;;13.37;10.47;;;;;;;;;;773707;179;918854;-70
2023/09/16 03:46:43;;;;;;;13.97;9.43;;;;;;;;;;771510;180;920517;-65
2023/09/16 03:49:09;;;;;;;14.97;9.53;;;;;;;;;;779627;180;918956;-65
2023/09/16 03:51:35;;;;;;;14.43;10.90;;;;;;;;;;769807;180;916196;-68
2023/09/16 03:54:00;;;;;;;14.33;9.47;;;;;;;;;;773606;181;918654;-64
2023/09/16 03:56:26;;;;;;;24.77;11.87;;;;;;;;;;774240;180;908121;-69
2023/09/16 03:58:52;;;;;;;12.43;10.40;;;;;;;;;;777465;179;832192;-69
2023/09/16 04:01:18;;;;;;;14.27;10.90;;;;;;;;;;775392;179;917998;-68
2023/09/16 04:03:44;;;;;;;15.40;10.10;;;;;;;;;;780463;177;921860;-68
2023/09/16 04:06:10;;;;;;;14.50;11.00;;;;;;;;;;763116;181;938364;-68
2023/09/16 04:08:35;;;;;;;13.53;10.30;;;;;;;;;;766892;181;919308;-65
2023/09/16 04:11:01;;;;;;;15.73;10.90;;;;;;;;;;777008;180;878513;-65
2023/09/16 04:13:27;;;;;;;20.23;9.97;;;;;;;;;;778033;179;919527;-64
2023/09/16 04:15:54;;;;;;;11.27;9.77;;;;;;;;;;772876;180;934876;-66
2023/09/16 04:18:19;;;;;;;16.23;12.07;;;;;;;;;;769434;177;941037;-65
2023/09/16 04:20:45;;;;;;;12.47;10.93;;;;;;;;;;777799;180;919577;-64
2023/09/16 04:23:11;;;;;;;14.77;11.43;;;;;;;;;;773116;177;920776;-69
2023/09/16 04:25:36;;;;;;;12.73;11.10;;;;;;;;;;772597;181;918517;-65
2023/09/16 04:28:03;;;;;;;13.43;11.47;;;;;;;;;;777237;180;918726;-68
2023/09/16 04:30:28;;;;;;;12.87;10.83;;;;;;;;;;774228;178;922101;-67
2023/09/16 04:32:54;;;;;;;13.67;9.60;;;;;;;;;;767906;180;915870;-68
2023/09/16 04:35:20;;;;;;;13.53;9.80;;;;;;;;;;777455;181;919318;-68
2023/09/16 04:37:46;;;;;;;17.77;11.77;;;;;;;;;;765323;181;920117;-65
2023/09/16 04:40:12;;;;;;;14.13;10.50;;;;;;;;;;770285;180;919047;-65
2023/09/16 04:42:38;;;;;;;13.45;11.35;;;;;;;;;;776814;180;919477;-68
2023/09/16 04:45:04;;;;;;;15.10;11.90;;;;;;;;;;769519;181;919880;-66
2023/09/16 04:47:30;;;;;;;16.07;11.10;;;;;;;;;;768248;181;819583;-69
2023/09/16 04:49:56;;;;;;;15.43;12.00;;;;;;;;;;775026;181;822333;-68
2023/09/16 04:52:22;;;;;;;14.13;11.43;;;;;;;;;;781106;179;817611;-64
2023/09/16 04:54:48;;;;;;;17.90;11.90;;;;;;;;;;761182;181;919697;-65
2023/09/16 04:57:14;;;;;;;18.47;12.23;;;;;;;;;;775429;178;851047;-68
2023/09/16 04:59:40;;;;;;;13.80;11.40;;;;;;;;;;778288;179;919335;-70
2023/09/16 05:02:05;;;;;;;15.57;11.07;;;;;;;;;;768832;180;918657;-69
2023/09/16 05:04:32;;;;;;;16.80;11.23;;;;;;;;;;768543;180;873745;-65
2023/09/16 05:06:57;;;;;;;16.77;10.93;;;;;;;;;;779955;177;915767;-71
2023/09/16 05:09:23;;;;;;;14.53;10.70;;;;;;;;;;777594;177;926170;-69
2023/09/16 05:11:49;;;;;;;12.70;10.70;;;;;;;;;;775328;179;923006;-64
2023/09/16 05:14:15;;;;;;;14.23;10.10;;;;;;;;;;774434;180;927107;-65
2023/09/16 05:16:41;;;;;;;13.73;10.03;;;;;;;;;;779251;180;918448;-70
2023/09/16 05:19:06;;;;;;;16.50;10.07;;;;;;;;;;772753;178;919976;-69
2023/09/16 05:21:32;;;;;;;12.87;9.83;;;;;;;;;;771233;180;928785;-68
2023/09/16 05:23:58;;;;;;;15.53;10.93;;;;;;;;;;777961;177;819901;-64
2023/09/16 05:26:24;;;;;;;13.07;10.43;;;;;;;;;;772575;180;919764;-69
2023/09/16 05:28:50;;;;;;;13.20;9.70;;;;;;;;;;769351;180;918212;-65
2023/09/16 05:31:16;;;;;;;14.97;11.10;;;;;;;;;;778131;179;845530;-64
2023/09/16 05:33:41;;;;;;;13.50;9.93;;;;;;;;;;771901;180;919129;-69
2023/09/16 05:36:07;;;;;;;13.13;10.23;;;;;;;;;;771748;177;914672;-70
2023/09/16 05:38:33;;;;;;;11.25;9.52;;;;;;;;;;775509;180;922968;-65
2023/09/16 05:40:59;;;;;;;10.07;9.00;;;;;;;;;;778952;180;922966;-70
2023/09/16 05:43:25;;;;;;;14.23;9.27;;;;;;;;;;770539;180;919500;-65
2023/09/16 05:45:51;;;;;;;16.90;11.80;;;;;;;;;;770979;181;919680;-70
2023/09/16 05:48:17;;;;;;;14.70;11.27;;;;;;;;;;778693;177;926310;-65
2023/09/16 05:50:43;;;;;;;19.60;10.03;;;;;;;;;;774810;178;916970;-69
2023/09/16 05:53:09;;;;;;;17.40;10.40;;;;;;;;;;774586;178;917278;-63
2023/09/16 05:55:37;;;;;;;11.70;8.87;;;;;;;;;;777597;180;923329;-69
2023/09/16 05:58:06;;;;;;;13.30;10.10;;;;;;;;;;770856;180;860466;-69
2023/09/16 06:00:29;;;;;;;13.57;9.10;;;;;;;;;;755515;181;918950;-64
2023/09/16 06:02:55;;;;;;;16.93;9.53;;;;;;;;;;774298;181;922101;-65
2023/09/16 06:05:21;;;;;;;11.68;9.40;;;;;;;;;;776522;181;918929;-69
2023/09/16 06:07:47;;;;;;;11.93;8.80;;;;;;;;;;772282;177;920724;-67
2023/09/16 06:10:12;;;;;;;10.65;8.40;;;;;;;;;;774166;181;1020994;-69
2023/09/16 06:12:38;;;;;;;10.07;8.63;;;;;;;;;;781324;181;818009;-64
2023/09/16 06:15:04;;;;;;;9.70;7.60;;;;;;;;;;768579;182;925089;-65
2023/09/16 06:17:30;;;;;;;10.30;7.93;;;;;;;;;;769613;181;918669;-68
2023/09/16 06:19:56;;;;;;;14.40;8.50;;;;;;;;;;780531;177;917644;-64
2023/09/16 06:22:23;;;;;;;12.67;9.10;;;;;;;;;;766914;179;869144;-67
2023/09/16 06:24:49;;;;;;;14.30;10.53;;;;;;;;;;772744;181;919178;-68
2023/09/16 06:27:15;;;;;;;15.33;9.57;;;;;;;;;;773622;177;920040;-68
2023/09/16 06:29:40;;;;;;;14.10;10.00;;;;;;;;;;760586;182;918106;-69
2023/09/16 06:32:07;;;;;;;14.43;10.43;;;;;;;;;;773520;180;918152;-70
2023/09/16 06:34:32;;;;;;;13.90;11.27;;;;;;;;;;768864;179;919421;-69
2023/09/16 06:36:59;;;;;;;15.37;11.57;;;;;;;;;;779966;180;813575;-63
2023/09/16 06:39:25;;;;;;;15.90;10.40;;;;;;;;;;773808;180;919509;-70
2023/09/16 06:41:50;;;;;;;12.43;10.55;;;;;;;;;;766530;180;879053;-68
2023/09/16 06:44:16;;;;;;;16.63;10.60;;;;;;;;;;777712;181;919902;-68
2023/09/16 06:46:43;;;;;;;14.60;11.33;;;;;;;;;;773517;178;918974;-63
2023/09/16 06:49:07;;;;;;;17.27;10.80;;;;;;;;;;771239;180;918616;-64
2023/09/16 06:51:33;;;;;;;16.73;11.20;;;;;;;;;;773690;180;920031;-64
2023/09/16 06:53:59;;;;;;;14.67;9.97;;;;;;;;;;762947;182;918224;-64
2023/09/16 06:56:25;;;;;;;15.50;12.33;;;;;;;;;;771724;181;919096;-67
2023/09/16 06:58:51;;;;;;;17.67;12.00;;;;;;;;;;772514;181;919031;-67
2023/09/16 07:01:16;;;;;;;14.20;10.37;;;;;;;;;;775268;179;918492;-68
2023/09/16 07:03:43;;;;;;;11.93;10.47;;;;;;;;;;772145;179;920461;-69
2023/09/16 07:06:08;;;;;;;15.63;9.87;;;;;;;;;;773770;179;933690;-69
2023/09/16 07:08:34;;;;;;;15.40;10.07;;;;;;;;;;774896;180;919166;-67
2023/09/16 07:11:00;;;;;;;13.00;10.00;;;;;;;;;;763519;180;937955;-62
2023/09/16 07:13:26;;;;;;;12.10;9.10;;;;;;;;;;774332;177;932609;-62
2023/09/16 07:15:53;;;;;;;15.37;10.00;;;;;;;;;;777819;180;841073;-62
2023/09/16 07:18:18;;;;;;;18.70;10.07;;;;;;;;;;773166;179;919127;-62
2023/09/16 07:20:44;;;;;;;13.17;9.40;;;;;;;;;;775699;178;919259;-63
2023/09/16 07:23:11;;;;;;;12.85;9.45;;;;;;;;;;774633;178;920279;-63
2023/09/16 07:25:36;;;;;;;12.50;10.10;;;;;;;;;;771557;181;918607;-67
2023/09/16 07:28:04;;;;;;;11.70;9.43;;;;;;;;;;770309;181;919585;-67
2023/09/16 07:30:28;;;;;;;14.53;8.43;;;;;;;;;;767088;180;851964;-63
2023/09/16 07:32:54;;;;;;;10.57;8.03;;;;;;;;;;782154;178;860412;-63
2023/09/16 07:35:20;;;;;;;11.20;8.67;;;;;;;;;;775785;180;917474;-67
2023/09/16 07:37:46;;;;;;;13.37;9.57;;;;;;;;;;772699;180;818274;-62
2023/09/16 07:40:12;;;;;;;14.50;9.23;;;;;;;;;;777891;179;918607;-67
2023/09/16 07:42:38;;;;;;;14.27;8.63;;;;;;;;;;774465;177;849160;-62
2023/09/16 07:45:04;;;;;;;10.33;7.70;;;;;;;;;;776658;177;869164;-63
2023/09/16 07:47:30;;;;;;;11.13;8.63;;;;;;;;;;777736;180;918330;-68
2023/09/16 07:49:55;;;;;;;10.20;7.50;;;;;;;;;;774516;180;820531;-62
2023/09/16 07:52:21;;;;;;;12.07;8.50;;;;;;;;;;773895;180;919287;-68
2023/09/16 07:54:47;;;;;;;11.17;8.20;;;;;;;;;;774626;180;923790;-61
2023/09/16 07:57:13;;;;;;;17.58;8.43;;;;;;;;;;781731;178;818688;-67
2023/09/16 07:59:39;;;;;;;11.13;8.20;;;;;;;;;;774855;180;918797;-68
2023/09/16 08:02:05;;;;;;;13.73;8.32;;;;;;;;;;770866;181;918606;-67
2023/09/16 08:04:31;;;;;;;11.03;8.07;;;;;;;;;;777290;179;918952;-65
2023/09/16 08:06:56;;;;;;;10.40;7.60;;;;;;;;;;768293;179;918998;-62
2023/09/16 08:09:22;;;;;;;10.60;8.57;;;;;;;;;;770079;181;827842;-67
2023/09/16 08:11:48;;;;;;;10.30;7.40;;;;;;;;;;778283;181;918777;-66
2023/09/16 08:14:14;;;;;;;12.60;6.50;;;;;;;;;;768611;180;919437;-62
2023/09/16 08:16:40;;;;;;;12.20;7.70;;;;;;;;;;769909;181;918840;-62
2023/09/16 08:19:06;;;;;;;10.15;7.45;;;;;;;;;;773848;180;920070;-61
2023/09/16 08:21:31;;;;;;;10.80;8.17;;;;;;;;;;770358;181;919133;-68
2023/09/16 08:23:57;;;;;;;11.00;7.50;;;;;;;;;;773876;178;926874;-65
2023/09/16 08:26:23;;;;;;;8.27;6.70;;;;;;;;;;772638;180;919621;-62
2023/09/16 08:28:49;;;;;;;10.83;6.80;;;;;;;;;;779377;180;818541;-68
2023/09/16 08:31:15;;;;;;;8.63;6.30;;;;;;;;;;770703;180;918741;-67
2023/09/16 08:33:41;;;;;;;8.30;6.37;;;;;;;;;;774423;181;816730;-61
2023/09/16 08:36:06;;;;;;;9.87;6.57;;;;;;;;;;777857;180;919053;-66
2023/09/16 08:38:32;;;;;;;13.50;6.37;;;;;;;;;;765072;179;918472;-66
2023/09/16 08:41:00;;;;;;;10.07;6.32;;;;;;;;;;761924;181;918517;-65
2023/09/16 08:43:27;;;;;;;7.27;6.00;;;;;;;;;;777018;179;937952;-61
2023/09/16 08:45:54;;;;;;;8.97;5.93;;;;;;;;;;768321;181;917987;-62
2023/09/16 08:48:20;;;;;;;12.13;6.70;;;;;;;;;;767302;181;919292;-67
2023/09/16 08:50:46;;;;;;;8.20;5.90;;;;;;;;;;772310;180;818657;-66
2023/09/16 08:53:12;;;;;;;11.50;6.07;;;;;;;;;;779175;180;919825;-61
2023/09/16 08:55:37;;;;;;;10.10;5.67;;;;;;;;;;770717;181;817322;-60
2023/09/16 08:58:03;;;;;;;8.97;4.90;;;;;;;;;;779311;177;628877;-65
2023/09/16 09:00:29;;;;;;;7.10;4.83;;;;;;;;;;784689;178;615932;-61
2023/09/16 09:02:55;;;;;;;6.90;4.73;;;;;;;;;;780637;179;627194;-66
2023/09/16 09:05:21;;;;;;;6.10;4.23;;;;;;;;;;778357;178;620574;-61
2023/09/16 09:07:47;;;;;;;5.80;4.27;;;;;;;;;;779603;180;624717;-60
2023/09/16 09:10:12;;;;;;;6.80;4.93;;;;;;;;;;778725;179;629046;-66
2023/09/16 09:12:39;;;;;;;6.57;3.83;;;;;;;;;;772003;178;880896;-65
2023/09/16 09:15:04;;;;;;;6.47;4.40;;;;;;;;;;767380;177;919438;-65
2023/09/16 09:17:33;;;;;;;8.30;4.60;;;;;;;;;;768472;182;919403;-66
2023/09/16 09:19:59;;;;;;;7.57;4.17;;;;;;;;;;774839;180;919052;-65
2023/09/16 09:22:25;;;;;;;7.27;4.63;;;;;;;;;;774654;180;919034;-65
2023/09/16 09:24:51;;;;;;;7.73;4.77;;;;;;;;;;775104;180;919336;-65
2023/09/16 09:27:17;;;;;;;6.27;4.27;;;;;;;;;;763124;181;920744;-60
2023/09/16 09:29:42;;;;;;;9.97;5.37;;;;;;;;;;765684;181;919498;-60
2023/09/16 09:32:08;;;;;;;6.20;4.37;;;;;;;;;;773401;181;919449;-65
2023/09/16 09:34:34;;;;;;;4.70;3.87;;;;;;;;;;770242;181;919173;-59
2023/09/16 09:37:00;;;;;;;9.83;4.43;;;;;;;;;;769422;180;918426;-59
2023/09/16 09:39:26;;;;;;;7.90;3.90;;;;;;;;;;773911;180;914891;-60
2023/09/16 09:41:52;;;;;;;6.27;4.20;;;;;;;;;;779821;178;919640;-66
2023/09/16 09:44:17;;;;;;;6.77;4.50;;;;;;;;;;771647;178;914446;-66
2023/09/16 09:46:43;;;;;;;5.77;4.13;;;;;;;;;;773552;180;916528;-66
2023/09/16 09:49:11;;;;;;;8.93;4.67;;;;;;;;;;767402;179;898944;-61
2023/09/16 09:51:35;;;;;;;4.23;3.40;;;;;;;;;;772305;178;915258;-66
2023/09/16 09:54:01;;;;;;;4.60;3.80;;;;;;;;;;774496;179;919258;-65
2023/09/16 09:56:27;;;;;;;8.33;4.03;;;;;;;;;;780524;179;920051;-60
2023/09/16 09:58:52;;;;;;;6.00;4.00;;;;;;;;;;777735;177;918117;-60
2023/09/16 10:01:18;;;;;;;4.97;3.90;;;;;;;;;;769856;180;921631;-60
2023/09/16 10:03:46;;;;;;;6.43;3.87;;;;;;;;;;772730;179;919409;-67
2023/09/16 10:06:14;;;;;;;6.27;3.40;;;;;;;;;;782153;178;815655;-61
2023/09/16 10:08:39;;;;;;;5.10;3.80;;;;;;;;;;771249;178;917375;-69
2023/09/16 10:11:05;;;;;;;6.10;3.87;;;;;;;;;;773169;177;920085;-60
2023/09/16 10:13:31;;;;;;;5.57;4.00;;;;;;;;;;782314;180;815602;-67
2023/09/16 10:16:00;;;;;;;6.07;3.93;;;;;;;;;;769663;178;919560;-66
2023/09/16 10:18:23;;;;;;;6.70;3.50;;;;;;;;;;772746;180;969559;-66
2023/09/16 10:20:49;;;;;;;5.47;4.27;;;;;;;;;;767844;182;916778;-67
2023/09/16 10:23:15;;;;;;;4.90;3.60;;;;;;;;;;765321;181;917941;-60
2023/09/16 10:25:40;;;;;;;5.63;3.90;;;;;;;;;;767408;181;919538;-61
2023/09/16 10:28:06;;;;;;;10.57;3.97;;;;;;;;;;773421;180;919165;-67
2023/09/16 10:30:32;;;;;;;6.70;3.87;;;;;;;;;;775881;179;919759;-66
2023/09/16 10:33:00;;;;;;;4.73;3.43;;;;;;;;;;759783;182;919291;-67
2023/09/16 10:35:24;;;;;;;4.82;3.47;;;;;;;;;;766624;181;915966;-66
2023/09/16 10:37:50;;;;;;;4.50;3.30;;;;;;;;;;777284;180;817005;-66
2023/09/16 10:40:16;;;;;;;4.97;3.10;;;;;;;;;;772485;180;917755;-59
2023/09/16 10:42:42;;;;;;;6.53;3.37;;;;;;;;;;771738;178;919644;-68
2023/09/16 10:45:11;;;;;;;6.00;3.43;;;;;;;;;;777044;181;919256;-66
2023/09/16 10:47:34;;;;;;;5.83;3.50;;;;;;;;;;766708;181;916936;-67
2023/09/16 10:50:00;;;;;;;4.70;3.40;;;;;;;;;;772245;181;920919;-66
2023/09/16 10:52:27;;;;;;;5.40;3.30;;;;;;;;;;768013;180;922006;-61
2023/09/16 10:55:02;;;;;;;5.77;3.30;;;;;;;;;;766970;181;900374;-60
2023/09/16 10:57:28;;;;;;;4.23;3.20;;;;;;;;;;766754;179;918044;-66
2023/09/16 10:59:54;;;;;;;4.40;3.03;;;;;;;;;;775098;178;918383;-65
2023/09/16 11:02:35;;;;;;;6.12;3.33;;;;;;;;;;775181;180;932751;-65
2023/09/16 11:05:01;;;;;;;4.07;2.40;;;;;;;;;;773649;177;918861;-66
2023/09/16 11:07:27;;;;;;;3.90;3.10;;;;;;;;;;780839;179;624842;-66
2023/09/16 11:09:54;;;;;;;4.20;3.47;;;;;;;;;;778475;180;627960;-60
2023/09/16 11:12:18;;;;;;;5.30;3.63;;;;;;;;;;772261;179;632457;-61
2023/09/16 11:14:44;;;;;;;4.97;3.60;;;;;;;;;;779518;180;626054;-65
2023/09/16 11:17:10;;;;;;;4.27;3.40;;;;;;;;;;776506;178;921658;-60
2023/09/16 11:19:36;;;;;;;5.27;3.60;;;;;;;;;;772196;178;869729;-66
2023/09/16 11:22:02;;;;;;;10.87;4.00;;;;;;;;;;777709;178;866135;-61
2023/09/16 11:24:28;;;;;;;6.23;2.83;;;;;;;;;;771369;179;816065;-66
2023/09/16 11:26:56;;;;;;;5.00;3.50;;;;;;;;;;774644;180;918779;-66
2023/09/16 11:29:19;;;;;;;6.23;2.97;;;;;;;;;;778301;180;919795;-65
2023/09/16 11:31:45;;;;;;;5.20;3.00;;;;;;;;;;769070;181;918330;-61
2023/09/16 11:34:11;;;;;;;5.07;2.60;;;;;;;;;;766970;181;917213;-62
2023/09/16 11:36:37;;;;;;;4.87;3.03;;;;;;;;;;773090;180;919378;-66
2023/09/16 11:39:18;;;;;;;4.77;2.43;;;;;;;;;;768332;180;918735;-67
2023/09/16 11:41:42;;;;;;;3.60;2.73;;;;;;;;;;762974;180;919516;-67
2023/09/16 11:44:08;;;;;;;3.17;2.67;;;;;;;;;;769988;181;919013;-66
2023/09/16 11:46:34;;;;;;;3.67;2.70;;;;;;;;;;765669;181;918885;-61
2023/09/16 11:49:03;;;;;;;4.40;3.00;;;;;;;;;;779008;179;846733;-60
2023/09/16 11:51:26;;;;;;;20.57;6.97;;;;;;;;;;772969;181;920386;-67
2023/09/16 11:53:52;;;;;;;25.07;8.90;;;;;;;;;;772040;180;819051;-60
2023/09/16 11:56:18;;;;;;;3.60;2.57;;;;;;;;;;774831;181;917993;-60
2023/09/16 11:58:44;;;;;;;18.57;7.20;;;;;;;;;;772184;181;921096;-60
2023/09/16 12:01:11;;;;;;;5.57;3.23;;;;;;;;;;771306;181;918104;-61
2023/09/16 12:03:36;;;;;;;29.70;7.53;;;;;;;;;;775220;180;917896;-60
2023/09/16 12:06:02;;;;;;;22.50;7.00;;;;;;;;;;763040;180;910517;-66
2023/09/16 12:08:28;;;;;;;14.70;6.23;;;;;;;;;;768110;178;922809;-60
2023/09/16 12:10:54;;;;;;;4.40;2.67;;;;;;;;;;772032;180;950176;-59
2023/09/16 12:13:25;;;;;;;5.50;2.83;;;;;;;;;;775118;180;918900;-59
2023/09/16 12:15:50;;;;;;;4.37;2.33;;;;;;;;;;771696;181;922829;-60
2023/09/16 12:18:16;;;;;;;5.67;2.87;;;;;;;;;;771888;180;922795;-66
2023/09/16 12:20:42;;;;;;;3.90;2.83;;;;;;;;;;780551;179;818878;-67
2023/09/16 12:23:08;;;;;;;11.00;3.77;;;;;;;;;;769644;180;921252;-66
2023/09/16 12:25:40;;;;;;;7.60;3.70;;;;;;;;;;768859;181;816321;-60
2023/09/16 12:28:05;;;;;;;3.87;2.93;;;;;;;;;;775116;180;919365;-65
2023/09/16 12:30:31;;;;;;;4.43;2.97;;;;;;;;;;779056;180;863362;-59
2023/09/16 12:32:57;;;;;;;5.60;2.90;;;;;;;;;;774968;180;908625;-59
2023/09/16 12:35:23;;;;;;;3.57;2.20;;;;;;;;;;768935;180;916725;-64
2023/09/16 12:37:49;;;;;;;4.47;2.83;;;;;;;;;;780212;180;809235;-67
2023/09/16 12:40:15;;;;;;;3.80;2.90;;;;;;;;;;775031;179;806260;-65
2023/09/16 12:42:40;;;;;;;5.30;3.00;;;;;;;;;;775675;180;922382;-65
2023/09/16 12:45:07;;;;;;;3.30;2.57;;;;;;;;;;777965;177;913120;-60
2023/09/16 12:47:32;;;;;;;3.63;2.70;;;;;;;;;;775369;180;919143;-60
2023/09/16 12:49:58;;;;;;;6.00;2.87;;;;;;;;;;775591;180;817994;-65
2023/09/16 12:52:24;;;;;;;3.40;2.43;;;;;;;;;;774959;180;858585;-64
2023/09/16 12:54:50;;;;;;;5.03;2.73;;;;;;;;;;777000;180;923466;-59
2023/09/16 12:57:19;;;;;;;3.63;2.40;;;;;;;;;;773781;177;818377;-60
2023/09/16 12:59:46;;;;;;;3.73;2.47;;;;;;;;;;773430;181;904211;-59
2023/09/16 13:02:12;;;;;;;4.10;2.80;;;;;;;;;;772988;181;918886;-66
2023/09/16 13:04:38;;;;;;;3.80;2.33;;;;;;;;;;767454;181;918380;-64
2023/09/16 13:07:04;;;;;;;3.40;2.57;;;;;;;;;;771234;179;750434;-60
2023/09/16 13:09:30;;;;;;;3.75;2.62;;;;;;;;;;771504;180;919103;-60
2023/09/16 13:11:57;;;;;;;3.60;2.87;;;;;;;;;;768487;181;919330;-61
2023/09/16 13:14:22;;;;;;;3.67;2.80;;;;;;;;;;764480;181;918300;-60
2023/09/16 13:16:48;;;;;;;4.40;2.37;;;;;;;;;;768787;180;923520;-65
2023/09/16 13:19:20;;;;;;;4.50;3.43;;;;;;;;;;779195;180;815960;-59
2023/09/16 13:21:39;;;;;;;5.37;3.03;;;;;;;;;;772430;180;919803;-66
2023/09/16 13:24:05;;;;;;;3.70;2.90;;;;;;;;;;775728;180;819106;-60
2023/09/16 13:26:31;;;;;;;4.77;3.20;;;;;;;;;;776416;180;814334;-59
2023/09/16 13:28:58;;;;;;;3.73;2.60;;;;;;;;;;762368;181;925989;-60
2023/09/16 13:31:23;;;;;;;5.07;2.60;;;;;;;;;;775732;177;919057;-66
2023/09/16 13:33:53;;;;;;;3.70;2.80;;;;;;;;;;767596;181;816166;-59
2023/09/16 13:36:16;;;;;;;4.80;2.93;;;;;;;;;;755149;181;919185;-66
2023/09/16 13:38:42;;;;;;;7.23;2.60;;;;;;;;;;774203;179;916710;-59
2023/09/16 13:41:08;;;;;;;3.50;2.53;;;;;;;;;;772672;180;919520;-67
2023/09/16 13:43:35;;;;;;;4.30;2.97;;;;;;;;;;779599;177;917287;-63
2023/09/16 13:46:01;;;;;;;5.67;3.00;;;;;;;;;;774160;181;922047;-60
2023/09/16 13:48:28;;;;;;;3.37;2.63;;;;;;;;;;774631;180;864217;-59
2023/09/16 13:50:52;;;;;;;3.87;2.40;;;;;;;;;;777519;177;818358;-62
2023/09/16 13:53:18;;;;;;;3.50;2.63;;;;;;;;;;767966;178;949079;-66
2023/09/16 13:55:50;;;;;;;3.70;3.00;;;;;;;;;;771514;180;918465;-65
2023/09/16 13:58:14;;;;;;;2.80;2.00;;;;;;;;;;771503;180;919453;-65
2023/09/16 14:00:40;;;;;;;4.60;2.90;;;;;;;;;;769295;180;920343;-66
2023/09/16 14:03:05;;;;;;;3.13;2.20;;;;;;;;;;760926;182;919696;-65
2023/09/16 14:05:31;;;;;;;3.57;2.77;;;;;;;;;;773390;180;818915;-61
2023/09/16 14:07:57;;;;;;;3.65;2.53;;;;;;;;;;778035;180;799778;-65
2023/09/16 14:10:25;;;;;;;4.50;2.70;;;;;;;;;;770576;178;823835;-65